createdAt,value
2018-02-16T00:01:10.532Z,95.81
2018-02-16T00:03:38.296Z,95.89
2018-02-16T00:06:05.984Z,95.88
2018-02-16T00:08:33.870Z,95.87
2018-02-16T00:11:01.570Z,95.95
2018-02-16T00:13:29.269Z,95.93
2018-02-16T00:15:56.903Z,95.97
2018-02-16T00:18:24.623Z,96.04
2018-02-16T00:20:52.350Z,96.19
2018-02-16T00:23:20.020Z,96.13
2018-02-16T00:25:50.803Z,96.12
2018-02-16T00:28:18.514Z,96.15
2018-02-16T00:30:46.434Z,96.11
2018-02-16T00:33:14.118Z,96.22
2018-02-16T00:35:44.112Z,96.25
2018-02-16T00:38:11.843Z,96.50
2018-02-16T00:40:39.511Z,96.44
2018-02-16T00:43:07.155Z,96.43
2018-02-16T00:45:34.873Z,96.41
2018-02-16T00:48:02.746Z,96.49
2018-02-16T00:50:30.402Z,96.49
2018-02-16T00:52:58.095Z,96.43
2018-02-16T00:55:25.820Z,96.44
2018-02-16T00:57:53.507Z,96.41
2018-02-16T01:00:21.168Z,96.43
2018-02-16T01:02:48.927Z,96.50
2018-02-16T01:05:16.599Z,96.54
2018-02-16T01:07:44.261Z,96.54
2018-02-16T01:10:12.395Z,96.51
2018-02-16T01:12:40.032Z,96.47
2018-02-16T01:15:07.680Z,96.45
2018-02-16T01:17:35.331Z,96.50
2018-02-16T01:20:03.020Z,96.57
2018-02-16T01:22:30.683Z,96.58
2018-02-16T01:24:58.395Z,96.70
2018-02-16T01:27:26.106Z,96.64
2018-02-16T01:29:53.809Z,96.51
2018-02-16T01:32:21.483Z,96.34
2018-02-16T01:34:49.145Z,96.22
2018-02-16T01:37:16.816Z,96.07
2018-02-16T01:39:44.530Z,95.98
2018-02-16T01:42:12.148Z,95.85
2018-02-16T01:44:40.540Z,95.76
2018-02-16T01:47:08.224Z,95.73
2018-02-16T01:52:41.626Z,95.46
2018-02-16T01:55:09.243Z,95.38
2018-02-16T01:57:36.869Z,95.37
2018-02-16T02:00:04.535Z,95.42
2018-02-16T02:02:32.142Z,95.55
2018-02-16T02:04:59.793Z,95.46
2018-02-16T02:07:27.369Z,95.27
2018-02-16T02:09:55.402Z,95.27
2018-02-16T02:12:23.020Z,95.23
2018-02-16T02:14:50.716Z,94.98
2018-02-16T02:17:18.363Z,95.00
2018-02-16T02:19:46.186Z,95.05
2018-02-16T02:22:13.820Z,95.04
2018-02-16T02:24:41.480Z,95.01
2018-02-16T02:27:09.065Z,94.73
2018-02-16T02:29:36.697Z,94.46
2018-02-16T02:32:04.315Z,94.30
2018-02-16T02:34:31.939Z,94.33
2018-02-16T02:36:59.568Z,94.50
2018-02-16T02:39:27.151Z,94.26
2018-02-16T02:41:54.816Z,94.13
2018-02-16T02:44:22.673Z,94.58
2018-02-16T02:46:50.277Z,94.43
2018-02-16T02:49:17.892Z,94.38
2018-02-16T02:51:45.499Z,94.35
2018-02-16T02:54:13.076Z,94.29
2018-02-16T02:56:40.776Z,94.10
2018-02-16T02:59:08.403Z,94.19
2018-02-16T03:01:36.014Z,93.88
2018-02-16T03:04:03.637Z,93.75
2018-02-16T03:06:33.256Z,93.69
2018-02-16T03:09:00.927Z,93.74
2018-02-16T03:11:28.505Z,93.62
2018-02-16T03:13:56.122Z,93.56
2018-02-16T03:16:23.703Z,93.47
2018-02-16T03:18:51.305Z,93.71
2018-02-16T03:21:18.893Z,93.69
2018-02-16T03:23:46.509Z,93.65
2018-02-16T03:26:14.096Z,93.52
2018-02-16T03:28:42.004Z,93.48
2018-02-16T03:31:09.580Z,93.52
2018-02-16T03:33:37.177Z,93.79
2018-02-16T03:36:04.814Z,93.77
2018-02-16T03:38:32.476Z,93.56
2018-02-16T03:41:00.114Z,93.40
2018-02-16T03:43:27.788Z,93.40
2018-02-16T03:45:55.366Z,93.11
2018-02-16T03:48:22.971Z,92.98
2018-02-16T03:50:50.630Z,93.00
2018-02-16T03:53:18.220Z,92.96
2018-02-16T03:55:46.101Z,92.93
2018-02-16T03:58:13.720Z,92.87
2018-02-16T04:00:41.330Z,93.08
2018-02-16T04:03:08.950Z,93.08
2018-02-16T04:05:36.568Z,93.08
2018-02-16T04:08:04.192Z,93.05
2018-02-16T04:10:32.079Z,93.21
2018-02-16T04:12:59.698Z,93.23
2018-02-16T04:15:27.328Z,93.38
2018-02-16T04:17:54.965Z,93.31
2018-02-16T04:20:22.557Z,93.17
2018-02-16T04:22:50.164Z,93.29
2018-02-16T04:25:18.011Z,93.58
2018-02-16T04:27:45.622Z,93.36
2018-02-16T04:30:13.259Z,93.42
2018-02-16T04:32:41.096Z,93.52
2018-02-16T04:35:08.721Z,93.56
2018-02-16T04:37:36.668Z,93.65
2018-02-16T04:40:04.265Z,93.75
2018-02-16T04:42:31.920Z,94.10
2018-02-16T04:44:59.516Z,93.90
2018-02-16T04:47:27.163Z,94.01
2018-02-16T04:49:55.082Z,94.07
2018-02-16T04:52:22.732Z,93.98
2018-02-16T04:54:50.311Z,93.94
2018-02-16T04:57:18.274Z,93.77
2018-02-16T04:59:45.913Z,93.66
2018-02-16T05:02:13.509Z,93.77
2018-02-16T05:04:41.082Z,93.81
2018-02-16T05:07:08.701Z,93.79
2018-02-16T05:09:36.339Z,93.72
2018-02-16T05:12:04.240Z,93.69
2018-02-16T05:14:31.870Z,93.92
2018-02-16T05:16:59.466Z,94.01
2018-02-16T05:19:27.112Z,94.09
2018-02-16T05:21:54.708Z,94.08
2018-02-16T05:24:22.305Z,94.25
2018-02-16T05:26:49.925Z,94.17
2018-02-16T05:29:17.520Z,94.33
2018-02-16T05:31:45.142Z,94.25
2018-02-16T05:34:13.007Z,94.23
2018-02-16T05:36:40.635Z,94.08
2018-02-16T05:39:08.223Z,94.16
2018-02-16T05:41:35.831Z,94.30
2018-02-16T05:44:03.409Z,94.20
2018-02-16T05:46:31.102Z,94.02
2018-02-16T05:48:58.707Z,94.01
2018-02-16T05:51:26.355Z,94.03
2018-02-16T05:53:53.965Z,94.10
2018-02-16T05:56:21.559Z,94.12
2018-02-16T05:58:49.173Z,94.05
2018-02-16T06:01:17.615Z,94.05
2018-02-16T06:03:45.479Z,94.12
2018-02-16T06:06:13.069Z,94.08
2018-02-16T06:08:40.996Z,94.23
2018-02-16T06:11:08.601Z,94.12
2018-02-16T06:13:36.191Z,94.09
2018-02-16T06:16:03.811Z,94.04
2018-02-16T06:18:31.424Z,94.17
2018-02-16T06:20:59.050Z,94.01
2018-02-16T06:23:26.966Z,94.26
2018-02-16T06:25:54.550Z,94.21
2018-02-16T06:28:22.242Z,94.27
2018-02-16T06:30:49.844Z,94.70
2018-02-16T06:33:17.417Z,94.60
2018-02-16T06:35:45.136Z,94.93
2018-02-16T06:38:12.816Z,94.80
2018-02-16T06:40:40.380Z,94.97
2018-02-16T06:43:08.015Z,94.72
2018-02-16T06:45:46.071Z,94.64
2018-02-16T06:48:13.726Z,94.80
2018-02-16T06:50:41.339Z,94.72
2018-02-16T06:53:09.255Z,94.63
2018-02-16T06:55:36.891Z,94.63
2018-02-16T06:58:04.463Z,94.81
2018-02-16T07:00:32.060Z,94.84
2018-02-16T07:02:59.682Z,94.75
2018-02-16T07:05:27.279Z,94.73
2018-02-16T07:07:54.973Z,94.79
2018-02-16T07:10:22.728Z,94.79
2018-02-16T07:12:50.318Z,94.79
2018-02-16T07:15:18.321Z,94.91
2018-02-16T07:17:45.931Z,94.86
2018-02-16T07:20:13.628Z,94.89
2018-02-16T07:22:41.622Z,94.86
2018-02-16T07:25:09.252Z,94.92
2018-02-16T07:27:36.935Z,94.80
2018-02-16T07:30:04.567Z,94.86
2018-02-16T07:32:32.178Z,94.96
2018-02-16T07:34:59.903Z,95.00
2018-02-16T07:37:27.500Z,95.12
2018-02-16T07:39:55.194Z,95.05
2018-02-16T07:42:22.783Z,95.04
2018-02-16T07:44:50.482Z,95.00
2018-02-16T07:47:18.141Z,95.05
2018-02-16T07:49:45.771Z,95.07
2018-02-16T07:52:13.386Z,95.04
2018-02-16T07:54:41.031Z,95.07
2018-02-16T07:57:09.105Z,95.03
2018-02-16T07:59:36.782Z,95.00
2018-02-16T08:02:04.730Z,95.01
2018-02-16T08:04:32.345Z,95.04
2018-02-16T08:07:00.000Z,95.32
2018-02-16T08:09:27.657Z,95.35
2018-02-16T08:11:55.297Z,95.26
2018-02-16T08:14:22.895Z,95.18
2018-02-16T08:16:50.516Z,95.23
2018-02-16T08:19:18.142Z,95.29
2018-02-16T08:21:45.743Z,95.20
2018-02-16T08:24:13.685Z,95.29
2018-02-16T08:26:41.517Z,95.20
2018-02-16T08:29:09.204Z,95.12
2018-02-16T08:31:36.821Z,95.04
2018-02-16T08:34:04.654Z,95.02
2018-02-16T08:36:32.314Z,95.04
2018-02-16T08:38:59.908Z,95.09
2018-02-16T08:41:27.516Z,95.12
2018-02-16T08:43:55.216Z,95.23
2018-02-16T08:46:22.843Z,95.00
2018-02-16T08:48:50.515Z,95.08
2018-02-16T08:51:18.096Z,95.12
2018-02-16T08:53:45.690Z,95.02
2018-02-16T08:56:13.339Z,94.93
2018-02-16T08:58:40.937Z,94.94
2018-02-16T09:01:08.568Z,94.81
2018-02-16T09:03:36.371Z,94.41
2018-02-16T09:06:03.941Z,94.33
2018-02-16T09:08:31.573Z,94.13
2018-02-16T09:10:59.160Z,94.08
2018-02-16T09:13:26.768Z,93.77
2018-02-16T09:15:54.699Z,93.72
2018-02-16T09:18:22.367Z,93.53
2018-02-16T09:20:49.997Z,93.51
2018-02-16T09:23:17.575Z,93.09
2018-02-16T09:25:45.373Z,92.65
2018-02-16T09:28:13.323Z,92.83
2018-02-16T09:30:40.924Z,92.62
2018-02-16T09:33:08.507Z,92.66
2018-02-16T09:35:49.824Z,92.25
2018-02-16T09:38:17.397Z,92.33
2018-02-16T09:40:44.983Z,92.46
2018-02-16T09:43:12.643Z,92.17
2018-02-16T09:45:40.266Z,91.68
2018-02-16T09:48:07.912Z,92.06
2018-02-16T09:50:35.764Z,91.93
2018-02-16T09:53:03.403Z,91.37
2018-02-16T09:55:31.124Z,91.24
2018-02-16T09:57:59.329Z,91.39
2018-02-16T10:00:26.996Z,91.06
2018-02-16T10:02:54.933Z,90.73
2018-02-16T10:05:22.610Z,90.27
2018-02-16T10:07:50.269Z,90.20
2018-02-16T10:10:17.942Z,89.83
2018-02-16T10:12:46.008Z,90.11
2018-02-16T10:15:13.718Z,89.87
2018-02-16T10:17:41.622Z,88.98
2018-02-16T10:20:09.336Z,88.73
2018-02-16T10:22:37.009Z,89.60
2018-02-16T10:25:05.111Z,89.17
2018-02-16T10:27:32.843Z,89.10
2018-02-16T10:30:00.544Z,88.65
2018-02-16T10:32:28.376Z,88.03
2018-02-16T10:34:56.622Z,87.14
2018-02-16T10:37:24.589Z,86.46
2018-02-16T10:39:52.376Z,86.27
2018-02-16T10:42:20.158Z,84.60
2018-02-16T10:44:47.841Z,84.70
2018-02-16T10:47:15.548Z,84.58
2018-02-16T10:49:43.303Z,83.59
2018-02-16T10:52:11.037Z,83.27
2018-02-16T10:54:38.718Z,82.88
2018-02-16T10:57:06.424Z,81.51
2018-02-16T10:59:34.101Z,81.58
2018-02-16T11:02:07.452Z,80.90
2018-02-16T11:04:40.615Z,80.70
2018-02-16T11:07:14.132Z,80.31
2018-02-16T11:09:41.844Z,79.57
2018-02-16T11:12:09.643Z,79.92
2018-02-16T11:14:42.981Z,79.84
2018-02-16T11:17:10.706Z,79.83
2018-02-16T11:19:38.456Z,78.91
2018-02-16T11:22:06.182Z,77.71
2018-02-16T11:24:33.838Z,78.37
2018-02-16T11:27:01.583Z,78.22
2018-02-16T11:29:29.259Z,76.69
2018-02-16T11:31:57.010Z,75.47
2018-02-16T11:34:24.965Z,76.19
2018-02-16T11:36:52.719Z,76.55
2018-02-16T11:39:20.507Z,77.19
2018-02-16T11:41:48.240Z,78.34
2018-02-16T11:44:15.999Z,76.87
2018-02-16T11:46:43.651Z,77.12
2018-02-16T11:49:11.361Z,76.12
2018-02-16T11:51:39.103Z,77.12
2018-02-16T11:54:07.084Z,76.95
2018-02-16T11:56:34.761Z,75.71
2018-02-16T11:59:02.434Z,76.15
2018-02-16T12:01:30.176Z,76.28
2018-02-16T12:03:57.925Z,75.81
2018-02-16T12:06:25.657Z,74.66
2018-02-16T12:08:53.379Z,72.39
2018-02-16T12:11:21.156Z,72.89
2018-02-16T12:13:48.924Z,73.34
2018-02-16T12:16:16.620Z,73.11
2018-02-16T12:18:44.415Z,71.99
2018-02-16T12:21:12.160Z,73.57
2018-02-16T12:23:39.893Z,72.56
2018-02-16T12:26:07.566Z,71.42
2018-02-16T12:28:35.338Z,71.65
2018-02-16T12:31:03.101Z,70.85
2018-02-16T12:33:30.772Z,71.62
2018-02-16T12:35:58.516Z,71.03
2018-02-16T12:38:26.211Z,71.04
2018-02-16T12:40:53.916Z,70.86
2018-02-16T12:43:21.662Z,70.00
2018-02-16T12:45:49.313Z,71.16
2018-02-16T12:48:17.073Z,71.65
2018-02-16T12:50:44.800Z,71.95
2018-02-16T12:53:13.849Z,71.19
2018-02-16T12:55:41.705Z,70.46
2018-02-16T12:58:09.377Z,71.24
2018-02-16T13:00:41.070Z,70.73
2018-02-16T13:03:08.905Z,69.78
2018-02-16T13:05:36.655Z,69.04
2018-02-16T13:10:43.338Z,69.54
2018-02-16T13:13:11.076Z,67.28
2018-02-16T13:15:38.786Z,67.89
2018-02-16T13:18:06.584Z,67.79
2018-02-16T13:20:34.874Z,68.61
2018-02-16T13:23:03.802Z,69.52
2018-02-16T13:25:33.156Z,69.99
2018-02-16T13:28:05.696Z,69.73
2018-02-16T13:30:33.453Z,69.80
2018-02-16T13:33:02.318Z,70.66
2018-02-16T13:35:30.079Z,70.91
2018-02-16T13:37:57.806Z,69.91
2018-02-16T13:40:25.585Z,69.99
2018-02-16T13:42:54.445Z,70.09
2018-02-16T13:45:23.636Z,70.38
2018-02-16T13:47:51.474Z,68.68
2018-02-16T13:50:25.009Z,69.16
2018-02-16T13:52:52.922Z,68.97
2018-02-16T13:55:22.765Z,69.45
2018-02-16T13:58:00.358Z,69.49
2018-02-16T14:00:32.466Z,68.73
2018-02-16T14:03:02.096Z,69.37
2018-02-16T14:05:33.725Z,70.26
2018-02-16T14:08:02.503Z,69.16
2018-02-16T14:10:30.223Z,69.03
2018-02-16T14:13:05.959Z,68.89
2018-02-16T14:15:34.588Z,68.72
2018-02-16T14:18:06.310Z,69.12
2018-02-16T14:20:39.140Z,69.26
2018-02-16T14:23:07.245Z,69.42
2018-02-16T14:25:36.249Z,69.15
2018-02-16T14:28:04.063Z,69.03
2018-02-16T14:30:33.017Z,68.53
2018-02-16T14:33:00.830Z,67.93
2018-02-16T14:35:30.404Z,66.86
2018-02-16T14:38:02.506Z,66.96
2018-02-16T14:40:30.579Z,66.87
2018-02-16T14:42:58.651Z,66.96
2018-02-16T14:45:30.123Z,66.37
2018-02-16T14:47:58.897Z,66.46
2018-02-16T14:50:26.646Z,66.67
2018-02-16T14:52:55.593Z,66.94
2018-02-16T14:55:23.335Z,67.03
2018-02-16T14:57:51.129Z,67.55
2018-02-16T15:00:20.053Z,67.59
2018-02-16T15:02:47.830Z,68.21
2018-02-16T15:05:15.580Z,68.70
2018-02-16T15:07:43.675Z,69.20
2018-02-16T15:10:11.452Z,69.14
2018-02-16T15:12:39.622Z,69.77
2018-02-16T15:15:08.412Z,69.51
2018-02-16T15:17:38.013Z,69.91
2018-02-16T15:20:05.712Z,70.05
2018-02-16T15:22:33.520Z,70.30
2018-02-16T15:25:01.263Z,70.17
2018-02-16T15:27:28.974Z,69.53
2018-02-16T15:29:56.657Z,69.35
2018-02-16T15:32:24.393Z,69.67
2018-02-16T15:34:52.113Z,69.74
2018-02-16T15:37:19.833Z,70.35
2018-02-16T15:39:47.659Z,70.83
2018-02-16T15:42:15.305Z,71.26
2018-02-16T15:44:42.982Z,71.53
2018-02-16T15:47:10.718Z,71.91
2018-02-16T15:49:38.325Z,71.63
2018-02-16T15:52:06.035Z,71.96
2018-02-16T15:54:33.883Z,72.31
2018-02-16T15:57:01.508Z,72.30
2018-02-16T15:59:29.161Z,72.17
2018-02-16T16:01:56.833Z,72.17
2018-02-16T16:04:24.510Z,72.07
2018-02-16T16:06:52.447Z,72.15
2018-02-16T16:09:20.209Z,72.17
2018-02-16T16:11:47.910Z,72.52
2018-02-16T16:14:15.696Z,72.63
2018-02-16T16:16:43.855Z,72.89
2018-02-16T16:19:11.505Z,73.28
2018-02-16T16:21:39.220Z,73.54
2018-02-16T16:24:06.955Z,73.94
2018-02-16T16:26:34.670Z,74.13
2018-02-16T16:29:02.390Z,74.23
2018-02-16T16:31:30.292Z,74.37
2018-02-16T16:33:58.052Z,74.56
2018-02-16T16:36:25.868Z,74.73
2018-02-16T16:38:53.601Z,75.04
2018-02-16T16:41:21.257Z,75.23
2018-02-16T16:43:48.913Z,75.58
2018-02-16T16:46:16.629Z,75.83
2018-02-16T16:48:44.571Z,76.31
2018-02-16T16:51:12.255Z,76.30
2018-02-16T16:53:39.972Z,76.39
2018-02-16T16:56:07.761Z,76.73
2018-02-16T16:58:35.853Z,76.79
2018-02-16T17:01:03.537Z,76.90
2018-02-16T17:03:31.306Z,77.02
2018-02-16T17:05:59.027Z,77.06
2018-02-16T17:08:26.794Z,77.14
2018-02-16T17:10:54.568Z,77.13
2018-02-16T17:13:22.196Z,77.22
2018-02-16T17:15:49.926Z,77.33
2018-02-16T17:18:17.692Z,77.38
2018-02-16T17:20:45.432Z,77.39
2018-02-16T17:23:13.061Z,77.47
2018-02-16T17:28:41.043Z,77.49
2018-02-16T17:31:08.820Z,77.50
2018-02-16T17:33:36.553Z,77.59
2018-02-16T17:36:04.546Z,77.68
2018-02-16T17:38:32.131Z,77.87
2018-02-16T17:40:59.807Z,78.04
2018-02-16T17:43:27.432Z,78.09
2018-02-16T17:45:55.138Z,78.07
2018-02-16T17:48:23.075Z,77.97
2018-02-16T17:50:50.658Z,77.93
2018-02-16T17:53:18.305Z,78.02
2018-02-16T17:55:45.950Z,78.17
2018-02-16T17:58:13.695Z,78.29
2018-02-16T18:00:41.473Z,78.33
2018-02-16T18:03:09.112Z,78.31
2018-02-16T18:05:36.796Z,78.28
2018-02-16T18:08:04.529Z,78.16
2018-02-16T18:10:32.221Z,78.15
2018-02-16T18:12:59.953Z,78.19
2018-02-16T18:15:29.666Z,78.51
2018-02-16T18:17:57.347Z,78.58
2018-02-16T18:20:25.235Z,78.52
2018-02-16T18:22:53.003Z,78.70
2018-02-16T18:25:20.698Z,78.82
2018-02-16T18:27:48.428Z,78.80
2018-02-16T18:30:16.166Z,79.06
2018-02-16T18:32:46.537Z,79.36
2018-02-16T18:35:14.193Z,79.53
2018-02-16T18:37:41.915Z,79.66
2018-02-16T18:40:09.938Z,79.81
2018-02-16T18:42:37.647Z,80.00
2018-02-16T18:45:05.318Z,80.07
2018-02-16T18:47:33.063Z,80.11
2018-02-16T18:50:00.805Z,80.38
2018-02-16T18:52:28.494Z,80.40
2018-02-16T18:54:56.095Z,80.47
2018-02-16T18:57:23.735Z,80.54
2018-02-16T18:59:52.495Z,80.55
2018-02-16T19:02:20.418Z,80.56
2018-02-16T19:04:48.019Z,80.78
2018-02-16T19:07:15.636Z,80.78
2018-02-16T19:09:43.268Z,80.87
2018-02-16T19:12:10.851Z,81.07
2018-02-16T19:14:38.485Z,81.23
2018-02-16T19:17:06.057Z,81.43
2018-02-16T19:19:33.666Z,81.61
2018-02-16T19:22:01.324Z,81.88
2018-02-16T19:24:28.985Z,82.00
2018-02-16T19:26:56.564Z,82.22
2018-02-16T19:29:24.173Z,82.46
2018-02-16T19:31:51.788Z,82.61
2018-02-16T19:34:19.505Z,82.71
2018-02-16T19:36:47.074Z,82.83
2018-02-16T19:39:14.697Z,82.91
2018-02-16T19:41:42.607Z,82.96
2018-02-16T19:44:10.292Z,82.94
2018-02-16T19:46:37.937Z,82.99
2018-02-16T19:49:05.553Z,83.18
2018-02-16T19:51:33.233Z,83.35
2018-02-16T19:54:00.935Z,83.46
2018-02-16T19:56:28.624Z,83.58
2018-02-16T19:58:56.340Z,83.65
2018-02-16T20:01:24.042Z,83.80
2018-02-16T20:03:51.696Z,83.90
2018-02-16T20:06:19.667Z,84.01
2018-02-16T20:08:47.347Z,84.06
2018-02-16T20:11:15.032Z,84.07
2018-02-16T20:13:42.670Z,83.98
2018-02-16T20:16:10.307Z,83.90
2018-02-16T20:18:37.974Z,83.85
2018-02-16T20:21:05.633Z,83.99
2018-02-16T20:23:33.575Z,84.23
2018-02-16T20:26:01.250Z,84.47
2018-02-16T20:28:28.864Z,84.49
2018-02-16T20:30:56.566Z,84.52
2018-02-16T20:33:24.656Z,84.53
2018-02-16T20:35:52.557Z,84.50
2018-02-16T20:38:20.176Z,84.50
2018-02-16T20:40:47.854Z,84.40
2018-02-16T20:43:15.468Z,84.28
2018-02-16T20:45:43.085Z,84.32
2018-02-16T20:48:10.727Z,84.54
2018-02-16T20:50:38.382Z,84.81
2018-02-16T20:53:06.038Z,85.02
2018-02-16T20:55:33.687Z,85.21
2018-02-16T20:58:01.435Z,85.31
2018-02-16T21:00:29.113Z,85.55
2018-02-16T21:02:56.760Z,85.75
2018-02-16T21:05:24.487Z,85.87
2018-02-16T21:07:52.135Z,85.97
2018-02-16T21:10:19.737Z,86.12
2018-02-16T21:12:47.382Z,86.10
2018-02-16T21:15:15.030Z,86.07
2018-02-16T21:17:42.648Z,86.02
2018-02-16T21:20:10.374Z,86.05
2018-02-16T21:22:37.970Z,86.11
2018-02-16T21:25:05.603Z,86.08
2018-02-16T21:27:33.471Z,86.17
2018-02-16T21:30:01.082Z,86.33
2018-02-16T21:32:28.793Z,86.46
2018-02-16T21:34:56.478Z,86.50
2018-02-16T21:37:24.062Z,86.56
2018-02-16T21:39:51.735Z,86.67
2018-02-16T21:42:19.383Z,86.83
2018-02-16T21:44:47.049Z,86.99
2018-02-16T21:47:14.667Z,87.17
2018-02-16T21:49:42.328Z,87.22
2018-02-16T21:52:09.954Z,87.29
2018-02-16T21:54:37.577Z,87.33
2018-02-16T21:57:05.214Z,87.32
2018-02-16T21:59:32.830Z,87.31
2018-02-16T22:02:00.486Z,87.22
2018-02-16T22:04:28.661Z,87.20
2018-02-16T22:06:56.269Z,87.25
2018-02-16T22:09:24.308Z,87.35
2018-02-16T22:11:51.915Z,87.40
2018-02-16T22:14:19.557Z,87.36
2018-02-16T22:16:47.198Z,87.37
2018-02-16T22:19:14.782Z,87.37
2018-02-16T22:21:42.817Z,87.38
2018-02-16T22:24:10.424Z,87.33
2018-02-16T22:26:38.381Z,87.29
2018-02-16T22:29:06.357Z,87.29
2018-02-16T22:31:34.446Z,87.33
2018-02-16T22:34:02.532Z,87.20
2018-02-16T22:36:30.519Z,87.15
2018-02-16T22:38:58.644Z,87.27
2018-02-16T22:41:26.230Z,87.34
2018-02-16T22:43:53.844Z,87.33
2018-02-16T22:46:21.795Z,87.30
2018-02-16T22:48:49.449Z,87.37
2018-02-16T22:51:17.085Z,87.61
2018-02-16T22:53:44.682Z,87.84
2018-02-16T22:56:12.343Z,87.97
2018-02-16T22:58:39.991Z,88.02
2018-02-16T23:01:07.576Z,88.01
2018-02-16T23:03:35.214Z,88.03
2018-02-16T23:06:02.862Z,88.12
2018-02-16T23:08:32.124Z,88.19
2018-02-16T23:11:03.238Z,88.24
2018-02-16T23:13:30.842Z,88.29
2018-02-16T23:15:58.479Z,88.41
2018-02-16T23:18:26.147Z,88.47
2018-02-16T23:20:53.831Z,88.48
2018-02-16T23:23:21.506Z,88.45
2018-02-16T23:25:49.154Z,88.38
2018-02-16T23:28:16.765Z,88.31
2018-02-16T23:30:44.589Z,88.17
2018-02-16T23:33:13.756Z,88.02
2018-02-16T23:35:41.358Z,88.00
2018-02-16T23:38:09.046Z,88.06
2018-02-16T23:40:36.642Z,88.06
2018-02-16T23:43:04.193Z,88.02
2018-02-16T23:45:31.789Z,88.03
2018-02-16T23:47:59.394Z,88.02
2018-02-16T23:50:27.028Z,87.99
2018-02-16T23:52:54.694Z,87.87
2018-02-16T23:55:22.646Z,87.91
2018-02-16T23:57:50.264Z,88.05
